createdAt,value
2016-07-29T00:00:03.388Z,20.3
2016-07-29T00:00:13.382Z,20.3
2016-07-29T00:00:23.376Z,20.3
2016-07-29T00:00:33.372Z,20.3
2016-07-29T00:00:43.368Z,20.3
2016-07-29T00:00:53.361Z,20.3
2016-07-29T00:01:03.358Z,20.3
2016-07-29T00:01:13.353Z,20.3
2016-07-29T00:01:23.350Z,20.3
2016-07-29T00:01:33.345Z,20.3
2016-07-29T00:01:43.341Z,20.3
2016-07-29T00:01:53.337Z,20.3
2016-07-29T00:02:03.340Z,20.3
2016-07-29T00:02:13.326Z,20.3
2016-07-29T00:02:23.322Z,20.3
2016-07-29T00:02:33.316Z,20.3
2016-07-29T00:02:43.308Z,20.3
2016-07-29T00:02:53.307Z,20.3
2016-07-29T00:03:03.307Z,20.3
2016-07-29T00:03:13.297Z,20.3
2016-07-29T00:03:24.025Z,20.3
2016-07-29T00:03:33.290Z,20.3
2016-07-29T00:03:43.285Z,20.3
2016-07-29T00:03:53.287Z,20.3
2016-07-29T00:04:03.288Z,20.3
2016-07-29T00:04:13.271Z,20.3
2016-07-29T00:04:23.265Z,20.3
2016-07-29T00:04:33.261Z,20.3
2016-07-29T00:04:43.258Z,20.3
2016-07-29T00:04:53.254Z,20.3
2016-07-29T00:05:03.248Z,20.3
2016-07-29T00:05:13.244Z,20.3
2016-07-29T00:05:23.241Z,20.3
2016-07-29T00:05:33.235Z,20.3
2016-07-29T00:05:43.230Z,20.3
2016-07-29T00:05:53.224Z,20.3
2016-07-29T00:06:03.221Z,20.3
2016-07-29T00:06:13.216Z,20.3
2016-07-29T00:06:23.213Z,20.3
2016-07-29T00:06:33.205Z,20.3
2016-07-29T00:06:43.204Z,20.3
2016-07-29T00:06:53.201Z,20.3
2016-07-29T00:07:03.195Z,20.3
2016-07-29T00:07:13.191Z,20.3
2016-07-29T00:07:23.187Z,20.3
2016-07-29T00:07:33.179Z,20.3
2016-07-29T00:07:43.177Z,20.3
2016-07-29T00:07:53.173Z,20.3
2016-07-29T00:08:03.171Z,20.3
2016-07-29T00:08:13.168Z,20.3
2016-07-29T00:08:23.156Z,20.3
2016-07-29T00:08:33.153Z,20.3
2016-07-29T00:08:43.145Z,20.3
2016-07-29T00:08:53.149Z,20.3
2016-07-29T00:09:03.141Z,20.3
2016-07-29T00:09:13.133Z,20.3
2016-07-29T00:09:23.130Z,20.3
2016-07-29T00:09:33.124Z,20.3
2016-07-29T00:09:43.121Z,20.3
2016-07-29T00:09:53.116Z,20.3
2016-07-29T00:10:03.113Z,20.3
2016-07-29T00:10:13.109Z,20.3
2016-07-29T00:10:23.104Z,20.3
2016-07-29T00:10:33.099Z,20.3
2016-07-29T00:10:43.095Z,20.3
2016-07-29T00:10:53.092Z,20.3
2016-07-29T00:11:03.086Z,20.3
2016-07-29T00:11:13.079Z,20.3
2016-07-29T00:11:23.077Z,20.3
2016-07-29T00:11:33.073Z,20.3
2016-07-29T00:11:43.069Z,20.3
2016-07-29T00:11:53.066Z,20.3
2016-07-29T00:12:03.059Z,20.3
2016-07-29T00:12:13.056Z,20.3
2016-07-29T00:12:23.050Z,20.3
2016-07-29T00:12:33.041Z,20.3
2016-07-29T00:12:43.040Z,20.3
2016-07-29T00:12:53.035Z,20.3
2016-07-29T00:13:03.034Z,20.3
2016-07-29T00:13:13.027Z,20.3
2016-07-29T00:13:23.020Z,20.3
2016-07-29T00:13:33.027Z,20.3
2016-07-29T00:13:43.013Z,20.3
2016-07-29T00:13:53.006Z,20.3
2016-07-29T00:14:03.001Z,20.3
2016-07-29T00:14:12.997Z,20.3
2016-07-29T00:14:22.993Z,20.3
2016-07-29T00:14:32.990Z,20.3
2016-07-29T00:14:42.986Z,20.3
2016-07-29T00:14:52.980Z,20.3
2016-07-29T00:15:02.980Z,20.3
2016-07-29T00:15:12.973Z,20.3
2016-07-29T00:15:22.969Z,20.3
2016-07-29T00:15:32.964Z,20.3
2016-07-29T00:15:42.958Z,20.3
2016-07-29T00:15:52.953Z,20.3
2016-07-29T00:16:02.949Z,20.3
2016-07-29T00:16:12.945Z,20.3
2016-07-29T00:16:22.941Z,20.3
2016-07-29T00:16:32.935Z,20.2
2016-07-29T00:16:42.938Z,20.3
2016-07-29T00:16:52.933Z,20.2
2016-07-29T00:17:02.922Z,20.2
2016-07-29T00:17:12.926Z,20.2
2016-07-29T00:17:22.914Z,20.2
2016-07-29T00:17:32.911Z,20.2
2016-07-29T00:17:42.903Z,20.2
2016-07-29T00:17:52.899Z,20.2
2016-07-29T00:18:02.897Z,20.2
2016-07-29T00:18:12.888Z,20.2
2016-07-29T00:18:22.887Z,20.2
2016-07-29T00:18:32.883Z,20.2
2016-07-29T00:18:42.875Z,20.2
2016-07-29T00:18:52.872Z,20.2
2016-07-29T00:19:02.865Z,20.2
2016-07-29T00:19:12.864Z,20.3
2016-07-29T00:19:22.857Z,20.3
2016-07-29T00:19:32.855Z,20.2
2016-07-29T00:19:42.850Z,20.2
2016-07-29T00:19:52.844Z,20.2
2016-07-29T00:20:02.849Z,20.2
2016-07-29T00:20:12.838Z,20.2
2016-07-29T00:20:22.831Z,20.2
2016-07-29T00:20:32.828Z,20.2
2016-07-29T00:20:42.822Z,20.2
2016-07-29T00:20:52.818Z,20.2
2016-07-29T00:21:02.813Z,20.2
2016-07-29T00:21:13.537Z,20.2
2016-07-29T00:21:22.804Z,20.2
2016-07-29T00:21:32.802Z,20.2
2016-07-29T00:21:42.797Z,20.2
2016-07-29T00:21:52.789Z,20.2
2016-07-29T00:22:02.784Z,20.2
2016-07-29T00:22:12.786Z,20.2
2016-07-29T00:22:22.773Z,20.2
2016-07-29T00:22:32.773Z,20.2
2016-07-29T00:22:42.765Z,20.2
2016-07-29T00:22:52.762Z,20.2
2016-07-29T00:23:02.767Z,20.2
2016-07-29T00:23:12.753Z,20.2
2016-07-29T00:23:22.761Z,20.2
2016-07-29T00:23:32.744Z,20.3
2016-07-29T00:23:42.738Z,20.3
2016-07-29T00:23:52.736Z,20.3
2016-07-29T00:24:03.459Z,20.2
2016-07-29T00:24:12.726Z,20.3
2016-07-29T00:24:22.721Z,20.2
2016-07-29T00:24:32.716Z,20.2
2016-07-29T00:24:42.712Z,20.2
2016-07-29T00:24:52.706Z,20.2
2016-07-29T00:25:02.709Z,20.2
2016-07-29T00:25:12.700Z,20.2
2016-07-29T00:25:22.694Z,20.2
2016-07-29T00:25:32.691Z,20.2
2016-07-29T00:25:42.686Z,20.2
2016-07-29T00:25:52.682Z,20.2
2016-07-29T00:26:02.678Z,20.2
2016-07-29T00:26:12.674Z,20.2
2016-07-29T00:26:22.670Z,20.2
2016-07-29T00:26:32.661Z,20.2
2016-07-29T00:26:42.657Z,20.2
2016-07-29T00:26:52.656Z,20.2
2016-07-29T00:27:02.652Z,20.2
2016-07-29T00:27:12.646Z,20.2
2016-07-29T00:27:22.640Z,20.2
2016-07-29T00:27:32.634Z,20.2
2016-07-29T00:27:42.628Z,20.2
2016-07-29T00:27:52.624Z,20.2
2016-07-29T00:28:02.622Z,20.2
2016-07-29T00:28:12.615Z,20.2
2016-07-29T00:28:22.614Z,20.2
2016-07-29T00:28:32.609Z,20.2
2016-07-29T00:28:42.602Z,20.2
2016-07-29T00:28:52.599Z,20.2
2016-07-29T00:29:02.595Z,20.2
2016-07-29T00:29:12.592Z,20.2
2016-07-29T00:29:22.584Z,20.2
2016-07-29T00:29:32.580Z,20.2
2016-07-29T00:29:42.582Z,20.2
2016-07-29T00:29:52.572Z,20.2
2016-07-29T00:30:02.570Z,20.2
2016-07-29T00:30:12.566Z,20.2
2016-07-29T00:30:22.560Z,20.2
2016-07-29T00:30:32.554Z,20.2
2016-07-29T00:30:42.551Z,20.2
2016-07-29T00:30:52.546Z,20.2
2016-07-29T00:31:02.541Z,20.2
2016-07-29T00:31:12.537Z,20.2
2016-07-29T00:31:22.530Z,20.3
2016-07-29T00:31:32.530Z,20.3
2016-07-29T00:31:42.525Z,20.3
2016-07-29T00:31:52.520Z,20.3
2016-07-29T00:32:02.510Z,20.3
2016-07-29T00:32:12.509Z,20.3
2016-07-29T00:32:22.503Z,20.3
2016-07-29T00:32:32.503Z,20.3
2016-07-29T00:32:42.503Z,20.2
2016-07-29T00:32:52.488Z,20.2
2016-07-29T00:33:02.486Z,20.3
2016-07-29T00:33:12.479Z,20.2
2016-07-29T00:33:22.480Z,20.3
2016-07-29T00:33:32.478Z,20.3
2016-07-29T00:33:42.467Z,20.3
2016-07-29T00:33:52.462Z,20.2
2016-07-29T00:34:02.466Z,20.2
2016-07-29T00:34:13.191Z,20.2
2016-07-29T00:34:22.449Z,20.2
2016-07-29T00:34:32.442Z,20.2
2016-07-29T00:34:42.440Z,20.2
2016-07-29T00:34:52.436Z,20.2
2016-07-29T00:35:02.432Z,20.2
2016-07-29T00:35:12.427Z,20.2
2016-07-29T00:35:22.421Z,20.2
2016-07-29T00:35:32.420Z,20.2
2016-07-29T00:35:42.415Z,20.2
2016-07-29T00:35:52.409Z,20.2
2016-07-29T00:36:02.403Z,20.2
2016-07-29T00:36:13.133Z,20.2
2016-07-29T00:36:22.394Z,20.2
2016-07-29T00:36:32.391Z,20.2
2016-07-29T00:36:42.386Z,20.2
2016-07-29T00:36:52.380Z,20.2
2016-07-29T00:37:02.377Z,20.2
2016-07-29T00:37:12.378Z,20.2
2016-07-29T00:37:22.367Z,20.2
2016-07-29T00:37:32.375Z,20.2
2016-07-29T00:37:42.357Z,20.2
2016-07-29T00:37:52.363Z,20.2
2016-07-29T00:38:02.349Z,20.2
2016-07-29T00:38:12.343Z,20.2
2016-07-29T00:38:22.340Z,20.2
2016-07-29T00:38:32.335Z,20.2
2016-07-29T00:38:42.330Z,20.2
2016-07-29T00:38:52.332Z,20.2
2016-07-29T00:39:02.322Z,20.2
2016-07-29T00:39:13.047Z,20.2
2016-07-29T00:39:22.320Z,20.2
2016-07-29T00:39:32.307Z,20.2
2016-07-29T00:39:42.302Z,20.2
2016-07-29T00:39:53.028Z,20.2
2016-07-29T00:40:02.295Z,20.2
2016-07-29T00:40:12.292Z,20.2
2016-07-29T00:40:22.283Z,20.2
2016-07-29T00:40:32.283Z,20.2
2016-07-29T00:40:42.279Z,20.2
2016-07-29T00:40:53.002Z,20.2
2016-07-29T00:41:02.266Z,20.2
2016-07-29T00:41:12.265Z,20.2
2016-07-29T00:41:22.258Z,20.2
2016-07-29T00:41:32.257Z,20.2
2016-07-29T00:41:42.253Z,20.2
2016-07-29T00:41:52.246Z,20.2
2016-07-29T00:42:02.241Z,20.2
2016-07-29T00:42:12.237Z,20.2
2016-07-29T00:42:22.232Z,20.2
2016-07-29T00:42:32.241Z,20.2
2016-07-29T00:42:42.225Z,20.2
2016-07-29T00:42:52.217Z,20.2
2016-07-29T00:43:02.214Z,20.2
2016-07-29T00:43:12.213Z,20.2
2016-07-29T00:43:22.205Z,20.2
2016-07-29T00:43:32.200Z,20.2
2016-07-29T00:43:42.195Z,20.2
2016-07-29T00:43:52.190Z,20.2
2016-07-29T00:44:02.187Z,20.2
2016-07-29T00:44:12.184Z,20.2
2016-07-29T00:44:22.175Z,20.2
2016-07-29T00:44:32.173Z,20.2
2016-07-29T00:44:42.173Z,20.2
2016-07-29T00:44:52.163Z,20.2
2016-07-29T00:45:02.162Z,20.2
2016-07-29T00:45:12.155Z,20.2
2016-07-29T00:45:22.150Z,20.2
2016-07-29T00:45:32.145Z,20.2
2016-07-29T00:45:42.139Z,20.2
2016-07-29T00:45:52.136Z,20.2
2016-07-29T00:46:02.134Z,20.2
2016-07-29T00:46:12.128Z,20.2
2016-07-29T00:46:22.125Z,20.2
2016-07-29T00:46:32.125Z,20.2
2016-07-29T00:46:42.113Z,20.2
2016-07-29T00:46:52.110Z,20.2
2016-07-29T00:47:02.106Z,20.2
2016-07-29T00:47:12.105Z,20.2
2016-07-29T00:47:22.098Z,20.2
2016-07-29T00:47:32.089Z,20.2
2016-07-29T00:47:42.089Z,20.2
2016-07-29T00:47:52.082Z,20.2
2016-07-29T00:48:02.077Z,20.2
2016-07-29T00:48:12.073Z,20.2
2016-07-29T00:48:22.076Z,20.2
2016-07-29T00:48:32.060Z,20.2
2016-07-29T00:48:42.057Z,20.2
2016-07-29T00:48:52.053Z,20.2
2016-07-29T00:49:02.050Z,20.2
2016-07-29T00:49:12.045Z,20.2
2016-07-29T00:49:22.039Z,20.2
2016-07-29T00:49:32.042Z,20.2
2016-07-29T00:49:42.032Z,20.2
2016-07-29T00:49:53.441Z,20.2
2016-07-29T00:50:02.023Z,20.2
2016-07-29T00:50:12.018Z,20.2
2016-07-29T00:50:22.013Z,20.2
2016-07-29T00:50:32.010Z,20.2
2016-07-29T00:50:42.006Z,20.2
2016-07-29T00:50:51.999Z,20.2
2016-07-29T00:51:01.995Z,20.2
2016-07-29T00:51:11.993Z,20.2
2016-07-29T00:51:21.989Z,20.2
2016-07-29T00:51:31.981Z,20.2
2016-07-29T00:51:41.978Z,20.2
2016-07-29T00:51:51.972Z,20.2
2016-07-29T00:52:01.970Z,20.2
2016-07-29T00:52:11.965Z,20.2
2016-07-29T00:52:21.959Z,20.2
2016-07-29T00:52:31.955Z,20.2
2016-07-29T00:52:41.952Z,20.2
2016-07-29T00:52:51.944Z,20.2
2016-07-29T00:53:01.938Z,20.2
2016-07-29T00:53:11.935Z,20.1
2016-07-29T00:53:21.930Z,20.1
2016-07-29T00:53:31.934Z,20.1
2016-07-29T00:53:41.922Z,20.1
2016-07-29T00:53:51.917Z,20.1
2016-07-29T00:54:01.915Z,20.1
2016-07-29T00:54:11.909Z,20.1
2016-07-29T00:54:21.905Z,20.1
2016-07-29T00:54:31.907Z,20.1
2016-07-29T00:54:41.897Z,20.1
2016-07-29T00:54:51.895Z,20.1
2016-07-29T00:55:01.887Z,20.1
2016-07-29T00:55:11.879Z,20.1
2016-07-29T00:55:21.878Z,20.1
2016-07-29T00:55:31.874Z,20.1
2016-07-29T00:55:41.868Z,20.1
2016-07-29T00:55:51.865Z,20.1
2016-07-29T00:56:01.863Z,20.1
2016-07-29T00:56:11.854Z,20.1
2016-07-29T00:56:21.849Z,20.1
2016-07-29T00:56:31.847Z,20.1
2016-07-29T00:56:41.844Z,20.1
2016-07-29T00:56:51.836Z,20.1
2016-07-29T00:57:01.834Z,20.1
2016-07-29T00:57:11.831Z,20.1
2016-07-29T00:57:21.820Z,20.1
2016-07-29T00:57:31.817Z,20.1
2016-07-29T00:57:41.813Z,20.1
2016-07-29T00:57:51.808Z,20.2
2016-07-29T00:58:01.803Z,20.2
2016-07-29T00:58:11.801Z,20.2
2016-07-29T00:58:21.793Z,20.2
2016-07-29T00:58:31.788Z,20.2
2016-07-29T00:58:41.783Z,20.2
2016-07-29T00:58:51.782Z,20.2
2016-07-29T00:59:01.776Z,20.2
2016-07-29T00:59:11.773Z,20.2
2016-07-29T00:59:21.768Z,20.2
2016-07-29T00:59:31.767Z,20.2
2016-07-29T00:59:41.758Z,20.2
2016-07-29T00:59:51.754Z,20.2
2016-07-29T01:00:01.755Z,20.2
2016-07-29T01:00:11.743Z,20.2
2016-07-29T01:00:21.740Z,20.2
2016-07-29T01:00:32.466Z,20.2
2016-07-29T01:00:41.735Z,20.2
2016-07-29T01:00:51.729Z,20.2
2016-07-29T01:01:01.723Z,20.2
2016-07-29T01:01:11.720Z,20.2
2016-07-29T01:01:21.724Z,20.2
2016-07-29T01:01:31.717Z,20.2
2016-07-29T01:01:41.706Z,20.1
2016-07-29T01:01:51.702Z,20.1
2016-07-29T01:02:01.695Z,20.1
2016-07-29T01:02:11.690Z,20.1
2016-07-29T01:02:21.687Z,20.2
2016-07-29T01:02:31.685Z,20.2
2016-07-29T01:02:41.680Z,20.2
2016-07-29T01:02:51.672Z,20.1
2016-07-29T01:03:01.669Z,20.2
2016-07-29T01:03:11.673Z,20.2
2016-07-29T01:03:21.664Z,20.1
2016-07-29T01:03:31.653Z,20.2
2016-07-29T01:03:41.649Z,20.2
2016-07-29T01:03:51.643Z,20.2
2016-07-29T01:04:01.639Z,20.2
2016-07-29T01:04:11.636Z,20.2
2016-07-29T01:04:21.631Z,20.2
2016-07-29T01:04:31.626Z,20.2
2016-07-29T01:04:41.621Z,20.1
2016-07-29T01:04:51.619Z,20.2
2016-07-29T01:05:01.612Z,20.1
2016-07-29T01:05:11.609Z,20.2
2016-07-29T01:05:21.603Z,20.2
2016-07-29T01:05:31.601Z,20.1
2016-07-29T01:05:41.595Z,20.2
2016-07-29T01:05:51.588Z,20.1
2016-07-29T01:06:01.586Z,20.1
2016-07-29T01:06:11.583Z,20.2
2016-07-29T01:06:21.581Z,20.1
2016-07-29T01:06:31.573Z,20.1
2016-07-29T01:06:41.571Z,20.1
2016-07-29T01:06:51.564Z,20.1
2016-07-29T01:07:01.557Z,20.1
2016-07-29T01:07:11.556Z,20.1
2016-07-29T01:07:21.549Z,20.1
2016-07-29T01:07:31.547Z,20.1
2016-07-29T01:07:41.539Z,20.1
2016-07-29T01:07:51.535Z,20.1
2016-07-29T01:08:01.531Z,20.1
2016-07-29T01:08:11.527Z,20.1
2016-07-29T01:08:21.523Z,20.1
2016-07-29T01:08:31.517Z,20.1
2016-07-29T01:08:41.514Z,20.1
2016-07-29T01:08:51.507Z,20.1
2016-07-29T01:09:01.504Z,20.1
2016-07-29T01:09:12.226Z,20.1
2016-07-29T01:09:21.497Z,20.1
2016-07-29T01:09:31.490Z,20.1
2016-07-29T01:09:41.486Z,20.1
2016-07-29T01:09:51.482Z,20.1
2016-07-29T01:10:01.479Z,20.1
2016-07-29T01:10:11.477Z,20.1
2016-07-29T01:10:21.471Z,20.1
2016-07-29T01:10:31.464Z,20.1
2016-07-29T01:10:41.458Z,20.1
2016-07-29T01:10:51.454Z,20.1
2016-07-29T01:11:01.449Z,20.1
2016-07-29T01:11:11.447Z,20.1
2016-07-29T01:11:21.442Z,20.1
2016-07-29T01:11:31.439Z,20.1
2016-07-29T01:11:41.436Z,20.1
2016-07-29T01:11:51.426Z,20.1
2016-07-29T01:12:01.422Z,20.1
2016-07-29T01:12:11.420Z,20
2016-07-29T01:12:21.413Z,20
2016-07-29T01:12:31.408Z,20
2016-07-29T01:12:41.403Z,20
2016-07-29T01:12:51.400Z,20.1
2016-07-29T01:13:01.398Z,20.1
2016-07-29T01:13:11.390Z,20.1
2016-07-29T01:13:21.388Z,20.1
2016-07-29T01:13:31.383Z,20.1
2016-07-29T01:13:41.377Z,20.1
2016-07-29T01:13:51.378Z,20.1
2016-07-29T01:14:01.368Z,20.1
2016-07-29T01:14:11.372Z,20.1
2016-07-29T01:14:21.358Z,20.1
2016-07-29T01:14:31.353Z,20.1
2016-07-29T01:14:41.350Z,20.1
2016-07-29T01:14:51.345Z,20.1
2016-07-29T01:15:01.339Z,20.1
2016-07-29T01:15:11.336Z,20.1
2016-07-29T01:15:21.332Z,20.1
2016-07-29T01:15:31.328Z,20
2016-07-29T01:15:41.324Z,20
2016-07-29T01:15:51.319Z,20
2016-07-29T01:16:01.311Z,20
2016-07-29T01:16:11.309Z,20
2016-07-29T01:16:21.301Z,20
2016-07-29T01:16:31.300Z,20
2016-07-29T01:16:41.297Z,20
2016-07-29T01:16:51.291Z,20
2016-07-29T01:17:01.285Z,20
2016-07-29T01:17:11.287Z,20
2016-07-29T01:17:21.276Z,20
2016-07-29T01:17:31.274Z,20
2016-07-29T01:17:41.275Z,20
2016-07-29T01:17:51.259Z,20
2016-07-29T01:18:01.260Z,20
2016-07-29T01:18:11.251Z,20
2016-07-29T01:18:21.250Z,20
2016-07-29T01:18:31.245Z,20
2016-07-29T01:18:41.240Z,20
2016-07-29T01:18:51.235Z,20
2016-07-29T01:19:01.229Z,20
2016-07-29T01:19:11.226Z,20
2016-07-29T01:19:21.228Z,20
2016-07-29T01:19:31.217Z,20
2016-07-29T01:19:41.221Z,20
2016-07-29T01:19:51.209Z,20
2016-07-29T01:20:01.205Z,20
2016-07-29T01:20:11.199Z,20
2016-07-29T01:20:21.194Z,20.1
2016-07-29T01:20:31.189Z,20
2016-07-29T01:20:41.186Z,20
2016-07-29T01:20:51.181Z,20
2016-07-29T01:21:01.178Z,20
2016-07-29T01:21:11.173Z,20
2016-07-29T01:21:21.169Z,20
2016-07-29T01:21:31.164Z,20
2016-07-29T01:21:41.158Z,20
2016-07-29T01:21:51.153Z,20
2016-07-29T01:22:01.147Z,20
2016-07-29T01:22:11.142Z,20
2016-07-29T01:22:21.140Z,20
2016-07-29T01:22:31.134Z,20
2016-07-29T01:22:41.130Z,20
2016-07-29T01:22:51.125Z,20
2016-07-29T01:23:01.122Z,20
2016-07-29T01:23:11.117Z,20
2016-07-29T01:23:21.115Z,20
2016-07-29T01:23:31.116Z,20.1
2016-07-29T01:23:41.104Z,20.1
2016-07-29T01:23:51.096Z,20.1
2016-07-29T01:24:01.093Z,20.1
2016-07-29T01:24:11.088Z,20.1
2016-07-29T01:24:21.084Z,20.1
2016-07-29T01:24:31.081Z,20.1
2016-07-29T01:24:41.076Z,20.1
2016-07-29T01:24:51.075Z,20
2016-07-29T01:25:01.069Z,20
2016-07-29T01:25:11.064Z,20
2016-07-29T01:25:21.056Z,20.1
2016-07-29T01:25:31.058Z,20.1
2016-07-29T01:25:41.048Z,20.1
2016-07-29T01:25:51.044Z,20
2016-07-29T01:26:01.041Z,20
2016-07-29T01:26:11.034Z,20
2016-07-29T01:26:21.032Z,20
2016-07-29T01:26:31.025Z,20
2016-07-29T01:26:41.022Z,20
2016-07-29T01:26:51.027Z,20
2016-07-29T01:27:01.012Z,20
2016-07-29T01:27:11.005Z,20
2016-07-29T01:27:21.001Z,20
2016-07-29T01:27:30.997Z,20
2016-07-29T01:27:40.992Z,20
2016-07-29T01:27:50.986Z,20
2016-07-29T01:28:00.989Z,20
2016-07-29T01:28:10.983Z,20
2016-07-29T01:28:20.975Z,20
2016-07-29T01:28:30.970Z,20
2016-07-29T01:28:40.967Z,20
2016-07-29T01:28:50.962Z,20
2016-07-29T01:29:00.957Z,20
2016-07-29T01:29:10.952Z,20
2016-07-29T01:29:20.953Z,20
2016-07-29T01:29:30.943Z,20
2016-07-29T01:29:40.937Z,20
2016-07-29T01:29:50.935Z,20
2016-07-29T01:30:00.935Z,20
2016-07-29T01:30:10.923Z,20
2016-07-29T01:30:20.922Z,20
2016-07-29T01:30:30.916Z,20
2016-07-29T01:30:40.910Z,20
2016-07-29T01:30:50.906Z,20
2016-07-29T01:31:00.904Z,20
2016-07-29T01:31:10.899Z,20
2016-07-29T01:31:20.895Z,20
2016-07-29T01:31:30.894Z,20
2016-07-29T01:31:40.884Z,20
2016-07-29T01:31:50.881Z,20
2016-07-29T01:32:00.879Z,20
2016-07-29T01:32:10.871Z,20
2016-07-29T01:32:21.594Z,20
2016-07-29T01:32:30.861Z,20
2016-07-29T01:32:40.856Z,20
2016-07-29T01:32:50.848Z,20
2016-07-29T01:33:00.849Z,20
2016-07-29T01:33:10.843Z,20
2016-07-29T01:33:20.836Z,20
2016-07-29T01:33:30.834Z,20
2016-07-29T01:33:40.829Z,20
2016-07-29T01:33:50.826Z,20
2016-07-29T01:34:00.820Z,20
2016-07-29T01:34:10.815Z,19.9
2016-07-29T01:34:20.812Z,20
2016-07-29T01:34:30.803Z,20
2016-07-29T01:34:40.804Z,19.9
2016-07-29T01:34:50.798Z,19.9
2016-07-29T01:35:00.795Z,19.9
2016-07-29T01:35:10.800Z,19.9
2016-07-29T01:35:20.786Z,19.9
2016-07-29T01:35:30.786Z,19.9
2016-07-29T01:35:40.779Z,19.9
2016-07-29T01:35:50.776Z,19.9
2016-07-29T01:36:00.767Z,19.9
2016-07-29T01:36:10.762Z,19.9
2016-07-29T01:36:20.757Z,19.9
2016-07-29T01:36:30.756Z,19.9
2016-07-29T01:36:40.748Z,19.9
2016-07-29T01:36:50.743Z,19.9
2016-07-29T01:37:00.749Z,19.9
2016-07-29T01:37:10.733Z,19.9
2016-07-29T01:37:20.727Z,19.9
2016-07-29T01:37:30.728Z,19.9
2016-07-29T01:37:40.718Z,19.9
2016-07-29T01:37:50.715Z,19.9
2016-07-29T01:38:01.438Z,19.9
2016-07-29T01:38:10.706Z,19.9
2016-07-29T01:38:21.429Z,19.9
2016-07-29T01:38:30.698Z,19.9
2016-07-29T01:38:40.694Z,19.9
2016-07-29T01:38:50.686Z,19.9
2016-07-29T01:39:00.684Z,19.9
2016-07-29T01:39:10.677Z,19.9
2016-07-29T01:39:20.682Z,19.9
2016-07-29T01:39:30.671Z,19.9
2016-07-29T01:39:40.665Z,19.9
2016-07-29T01:39:50.660Z,19.9
2016-07-29T01:40:00.654Z,19.9
2016-07-29T01:40:10.653Z,19.9
2016-07-29T01:40:20.649Z,19.9
2016-07-29T01:40:31.371Z,19.9
2016-07-29T01:40:40.640Z,19.9
2016-07-29T01:40:50.638Z,19.9
2016-07-29T01:41:00.631Z,19.9
2016-07-29T01:41:10.623Z,19.9
2016-07-29T01:41:20.617Z,19.9
2016-07-29T01:41:30.615Z,19.9
2016-07-29T01:41:40.607Z,19.9
2016-07-29T01:41:51.334Z,19.9
2016-07-29T01:42:00.602Z,19.9
2016-07-29T01:42:10.595Z,19.9
2016-07-29T01:42:20.592Z,19.9
2016-07-29T01:42:30.587Z,20
2016-07-29T01:42:40.584Z,19.9
2016-07-29T01:42:50.579Z,19.9
2016-07-29T01:43:00.573Z,19.9
2016-07-29T01:43:10.570Z,19.9
2016-07-29T01:43:20.567Z,19.9
2016-07-29T01:43:30.565Z,19.9
2016-07-29T01:43:40.554Z,19.9
2016-07-29T01:43:50.561Z,19.9
2016-07-29T01:44:00.547Z,19.9
2016-07-29T01:44:10.543Z,19.9
2016-07-29T01:44:20.538Z,19.9
2016-07-29T01:44:30.534Z,19.9
2016-07-29T01:44:40.527Z,19.9
2016-07-29T01:44:50.524Z,19.9
2016-07-29T01:45:00.526Z,19.9
2016-07-29T01:45:10.518Z,19.9
2016-07-29T01:45:20.514Z,19.9
2016-07-29T01:45:30.508Z,19.9
2016-07-29T01:45:40.503Z,19.9
2016-07-29T01:45:50.494Z,19.9
2016-07-29T01:46:00.492Z,19.9
2016-07-29T01:46:10.488Z,19.9
2016-07-29T01:46:20.482Z,19.9
2016-07-29T01:46:30.480Z,19.9
2016-07-29T01:46:40.474Z,19.9
2016-07-29T01:46:50.468Z,19.9
2016-07-29T01:47:00.462Z,19.9
2016-07-29T01:47:10.459Z,19.9
2016-07-29T01:47:20.454Z,19.9
2016-07-29T01:47:30.449Z,19.9
2016-07-29T01:47:40.445Z,19.9
2016-07-29T01:47:51.170Z,19.9
2016-07-29T01:48:00.436Z,19.9
2016-07-29T01:48:10.431Z,19.9
2016-07-29T01:48:20.427Z,19.9
2016-07-29T01:48:30.424Z,19.9
2016-07-29T01:48:40.419Z,19.9
2016-07-29T01:48:50.413Z,19.9
2016-07-29T01:49:00.410Z,19.9
2016-07-29T01:49:10.405Z,19.9
2016-07-29T01:49:20.407Z,19.9
2016-07-29T01:49:30.398Z,19.9
2016-07-29T01:49:40.391Z,19.9
2016-07-29T01:49:50.386Z,19.9
2016-07-29T01:50:00.383Z,19.9
2016-07-29T01:50:10.377Z,19.9
2016-07-29T01:50:20.371Z,19.9
2016-07-29T01:50:30.368Z,19.9
2016-07-29T01:50:40.366Z,19.9
2016-07-29T01:50:50.373Z,19.9
2016-07-29T01:51:00.354Z,19.9
2016-07-29T01:51:10.358Z,19.9
2016-07-29T01:51:20.346Z,19.9
2016-07-29T01:51:30.340Z,19.9
2016-07-29T01:51:40.334Z,19.9
2016-07-29T01:51:50.329Z,19.9
2016-07-29T01:52:00.327Z,19.9
2016-07-29T01:52:10.329Z,19.9
2016-07-29T01:52:20.317Z,19.9
2016-07-29T01:52:30.313Z,19.9
2016-07-29T01:52:40.309Z,19.9
2016-07-29T01:52:50.303Z,19.9
2016-07-29T01:53:00.300Z,19.9
2016-07-29T01:53:10.294Z,19.9
2016-07-29T01:53:20.293Z,19.9
2016-07-29T01:53:30.286Z,19.9
2016-07-29T01:53:40.280Z,19.9
2016-07-29T01:53:50.278Z,19.9
2016-07-29T01:54:00.276Z,19.9
2016-07-29T01:54:10.268Z,19.9
2016-07-29T01:54:20.270Z,19.9
2016-07-29T01:54:30.258Z,19.9
2016-07-29T01:54:40.255Z,19.9
2016-07-29T01:54:50.979Z,19.9
2016-07-29T01:55:00.246Z,19.9
2016-07-29T01:55:10.243Z,19.9
2016-07-29T01:55:20.238Z,19.9
2016-07-29T01:55:30.232Z,19.9
2016-07-29T01:55:40.227Z,19.9
2016-07-29T01:55:50.220Z,19.9
2016-07-29T01:56:00.221Z,19.9
2016-07-29T01:56:10.214Z,19.9
2016-07-29T01:56:20.207Z,19.8
2016-07-29T01:56:30.206Z,19.8
2016-07-29T01:56:40.200Z,19.8
2016-07-29T01:56:50.193Z,19.8
2016-07-29T01:57:00.190Z,19.8
2016-07-29T01:57:10.183Z,19.8
2016-07-29T01:57:20.180Z,19.8
2016-07-29T01:57:30.177Z,19.8
2016-07-29T01:57:40.169Z,19.8
2016-07-29T01:57:50.167Z,19.8
2016-07-29T01:58:00.163Z,19.8
2016-07-29T01:58:10.158Z,19.8
2016-07-29T01:58:20.154Z,19.8
2016-07-29T01:58:30.151Z,19.8
2016-07-29T01:58:40.149Z,19.8
2016-07-29T01:58:50.144Z,19.8
2016-07-29T01:59:00.138Z,19.8
2016-07-29T01:59:10.128Z,19.8
2016-07-29T01:59:20.129Z,19.8
2016-07-29T01:59:30.119Z,19.8
2016-07-29T01:59:40.119Z,19.8
2016-07-29T01:59:50.112Z,19.8
2016-07-29T02:00:00.109Z,19.8
2016-07-29T02:00:10.103Z,19.8
2016-07-29T02:00:20.098Z,19.8
2016-07-29T02:00:30.093Z,19.8
2016-07-29T02:00:40.090Z,19.8
2016-07-29T02:00:50.089Z,19.8
2016-07-29T02:01:00.079Z,19.8
2016-07-29T02:01:10.076Z,19.8
2016-07-29T02:01:20.070Z,19.8
2016-07-29T02:01:30.796Z,19.8
2016-07-29T02:01:40.060Z,19.8
2016-07-29T02:01:50.056Z,19.8
2016-07-29T02:02:00.052Z,19.8
2016-07-29T02:02:10.047Z,19.8
2016-07-29T02:02:20.043Z,19.8
2016-07-29T02:02:30.038Z,19.8
2016-07-29T02:02:40.037Z,19.8
2016-07-29T02:02:50.033Z,19.8
2016-07-29T02:03:00.026Z,19.8
2016-07-29T02:03:10.021Z,19.8
2016-07-29T02:03:20.018Z,19.8
2016-07-29T02:03:30.013Z,19.8
2016-07-29T02:03:40.007Z,19.8
2016-07-29T02:03:50.003Z,19.8
2016-07-29T02:04:00.002Z,19.8
2016-07-29T02:04:09.993Z,19.8
2016-07-29T02:04:19.988Z,19.8
2016-07-29T02:04:29.983Z,19.8
2016-07-29T02:04:40.723Z,19.8
2016-07-29T02:04:49.975Z,19.8
2016-07-29T02:04:59.973Z,19.8
2016-07-29T02:05:09.962Z,19.7
2016-07-29T02:05:19.960Z,19.8
2016-07-29T02:05:29.954Z,19.8
2016-07-29T02:05:39.952Z,19.8
2016-07-29T02:05:49.946Z,19.7
2016-07-29T02:05:59.941Z,19.8
2016-07-29T02:06:09.938Z,19.7
2016-07-29T02:06:19.934Z,19.8
2016-07-29T02:06:29.929Z,19.8
2016-07-29T02:06:39.923Z,19.8
2016-07-29T02:06:49.919Z,19.8
2016-07-29T02:06:59.915Z,19.8
2016-07-29T02:07:09.910Z,19.7
2016-07-29T02:07:19.907Z,19.7
2016-07-29T02:07:29.899Z,19.7
2016-07-29T02:07:39.896Z,19.7
2016-07-29T02:07:49.891Z,19.7
2016-07-29T02:07:59.888Z,19.7
2016-07-29T02:08:09.885Z,19.7
2016-07-29T02:08:19.878Z,19.7
2016-07-29T02:08:29.874Z,19.7
2016-07-29T02:08:39.872Z,19.7
2016-07-29T02:08:49.865Z,19.7
2016-07-29T02:08:59.862Z,19.7
2016-07-29T02:09:09.863Z,19.7
2016-07-29T02:09:19.851Z,19.7
2016-07-29T02:09:29.854Z,19.7
2016-07-29T02:09:39.851Z,19.7
2016-07-29T02:09:49.838Z,19.7
2016-07-29T02:09:59.836Z,19.7
2016-07-29T02:10:09.827Z,19.7
2016-07-29T02:10:19.824Z,19.7
2016-07-29T02:10:29.819Z,19.7
2016-07-29T02:10:39.815Z,19.7
2016-07-29T02:10:49.812Z,19.7
2016-07-29T02:10:59.806Z,19.7
2016-07-29T02:11:09.802Z,19.7
2016-07-29T02:11:19.796Z,19.7
2016-07-29T02:11:29.790Z,19.7
2016-07-29T02:11:39.788Z,19.7
2016-07-29T02:11:49.777Z,19.7
2016-07-29T02:11:59.777Z,19.7
2016-07-29T02:12:09.773Z,19.7
2016-07-29T02:12:19.769Z,19.7
2016-07-29T02:12:29.766Z,19.7
2016-07-29T02:12:39.762Z,19.7
2016-07-29T02:12:49.754Z,19.7
2016-07-29T02:12:59.759Z,19.7
2016-07-29T02:13:09.747Z,19.7
2016-07-29T02:13:19.743Z,19.7
2016-07-29T02:13:29.737Z,19.7
2016-07-29T02:13:39.734Z,19.7
2016-07-29T02:13:49.726Z,19.6
2016-07-29T02:13:59.723Z,19.7
2016-07-29T02:14:09.719Z,19.6